Edward Hamilton

Olheiro-Chefe - Burnley
22 Fev 2028
Terça-feira
Processo

Personalidade

Adaptabilidade (9) Ambição (19) Controvérsia (6) Lealdade (12) Pressão (18) Profissionalismo (14) Espírito Esportivo (11) Temperamento (8)

Perfil

Estilo de Treinamento Democrático
Licença Continental A
Determinação 8
Gestão de Pessoas 12
Motivação 8
Disciplina 13
Satisfação no Trabalho
100%
Fadiga
0%
Função Olheiro-Chefe
Salário 85.5K p/s
Contrato 14.03.2029

Desempenho

Comportamento Bom
Eficácia do Treinamento
55%
Desenvolvimento do Jogador
45%
Prevenção de Lesões
35%
Implementação Tática
65%

Eventos Recentes

Participou de uma reunião de recrutamento agora
Avaliou um jogador 7d atrás
Participou de uma reunião de recrutamento 7d atrás
Recomendou um alvo de transferência 7d atrás
Participou de uma reunião de recrutamento 7d atrás
Avaliou um jogador 7d atrás
Avaliou um jogador 7d atrás
Avaliou um jogador 7d atrás

Monitorando agora

173
Jogador Clube Status Habilidade Confiança Observado Última observação Último voto
Fillip Jenssen Riise Stabaek Ativo 104 / 124 40% 2 19.02.2028 -
Gopolang Taunyane CR Belouizdad Ativo 93 / 97 40% 2 19.02.2028 -
Christos Mouzakitis Hull City Ativo 139 / 152 40% 4 16.02.2028 -
Guy Noël Zohouri RC Strasbourg Ativo 119 / 125 40% 1 16.02.2028 -
Ronan Kpakio Cardiff City Ativo 120 / 132 40% 4 15.02.2028 -
Emmanuel Dzigbah Cukaricki Ativo 98 / 107 40% 1 15.02.2028 -
Esquerdinha Shrewsbury Town Ativo 128 / 128 40% 8 14.02.2028 -
Ayden Heaven Luton Town Ativo 138 / 143 40% 3 14.02.2028 -
Tobías Andrada Virtus Entella Ativo 123 / 127 40% 1 14.02.2028 -
Rivaldo Grobler Free State Stars Ativo 104 / 112 40% 3 13.02.2028 -
Vasilije Novičić IMT Ativo 98 / 103 40% 1 13.02.2028 -
Honest Ahanor AS Roma Ativo 137 / 149 40% 1 13.02.2028 -
Sascha Britschgi Padova Ativo 121 / 133 40% 1 11.02.2028 -
Alexis Vossah FC Nantes Ativo 118 / 126 40% 1 11.02.2028 -
Trey Nyoni Rotherham United Ativo 139 / 147 40% 2 10.02.2028 -
Igor Felisberto Sport Recife Ativo 113 / 108 40% 1 10.02.2028 -
Mikkel Hope Haugesund Ativo 111 / 120 40% 1 10.02.2028 -
Martim Cunha Porto Ativo 100 / 103 40% 1 09.02.2028 -
Josh King Chelsea Ativo 139 / 157 40% 3 08.02.2028 -
Josh Nichols Tranmere Rovers Ativo 120 / 116 40% 3 08.02.2028 -
Daniel Banjaqui Benfica Ativo 124 / 128 40% 1 08.02.2028 -
Kelly Saravanan Salford City Relatório pronto 111 / 112 69% 1 24.01.2028 -
Ernie Weaver AFC Wimbledon Ativo 111 / 115 40% 3 17.01.2028 -
Adam Aznou Everton Ativo 123 / 137 40% 1 17.01.2028 -
Alex Lowry Wycombe Wanderers Perdido 114 / 113 69% 1 10.01.2028 -
Mao Hosoya Everton Negociando 134 / 135 90% 1 01.01.2028 -
Caleb Yirenkyi Coventry City Ativo 145 / 146 40% 4 31.12.2027 -
Jorthy Mokio ADO Den Haag Ativo 123 / 144 40% 1 31.12.2027 -
Celías Ingenthron Vélez Ativo 119 / 130 40% 4 07.12.2027 -
Eduardo Felicíssimo Sporting CP Ativo 114 / 137 40% 1 07.12.2027 -
Joel McGregor Swindon Town Ativo 101 / 108 40% 1 07.12.2027 -
Agustín Obregón River Plate Ativo 113 / 116 40% 2 04.12.2027 -
Juan Morán Godoy Cruz Ativo 100 / 103 40% 2 04.12.2027 -
Khalis Merah Toulouse FC Ativo 122 / 136 40% 2 03.12.2027 -
Tygo Land PSV Ativo 132 / 138 40% 1 28.11.2027 -
Giovanni Leoni Bradford City Ativo 146 / 155 40% 1 27.11.2027 -
Tiago Parente Benfica Ativo 114 / 120 40% 3 26.11.2027 -
Harrison Armstrong Everton Ativo 133 / 142 40% 1 26.11.2027 -
Lazar Stefanovic Toronto FC Ativo 90 / 91 40% 2 21.11.2027 -
Frankie Westfield Philadelphia Union Ativo 99 / 114 40% 4 21.11.2027 -
Jonny Shore New York City Ativo 99 / 108 40% 1 21.11.2027 -
Hervin Goyes Deportivo Pasto Ativo 105 / 121 40% 2 17.11.2027 -
Alejandro Almaraz Nueva Chicago Ativo 111 / 124 40% 3 15.11.2027 -
Archie Gray Derby County Ativo 155 / 152 40% 1 14.11.2027 -
Felipe Obradovich Ferro Carril Oeste Ativo 102 / 125 40% 1 13.11.2027 -
Dmitry Pestryakov Dinamo Moscow Ativo 105 / 115 40% 1 13.11.2027 -
Matías Gómez Granada Ativo 125 / 131 40% 2 12.11.2027 -
Veljko Milosavljević Aston Villa Ativo 137 / 156 40% 2 12.11.2027 -
Jorrel Hato Chelsea Ativo 146 / 148 40% 1 12.11.2027 -
Mauro Carrizo Atlético Tucumán Ativo 109 / 109 40% 2 10.11.2027 -
Dylan Gorosito Villarreal Ativo 120 / 125 40% 1 09.11.2027 -
Stuart Hawkins Seattle Sounders Ativo 117 / 113 40% 1 09.11.2027 -
Samuel Martín Millonarios Ativo 107 / 115 40% 1 08.11.2027 -
Kaick Minnesota United FC Ativo 112 / 127 40% 1 07.11.2027 -
Joe Johnson Barnet Ativo 99 / 101 40% 3 02.11.2027 -
Bahia Criciuma Ativo 120 / 113 40% 2 01.11.2027 -
Malick Yalcouyé Brighton Ativo 128 / 128 40% 1 14.10.2027 -
Pablo Aguiar Independiente Ativo 98 / 112 40% 1 14.10.2027 -
Juma Bah Manchester City Ativo 127 / 123 40% 1 13.10.2027 -
Luka Vušković Manchester United Ativo 141 / 152 40% 1 11.10.2027 -
Myles Lewis-Skelly Birmingham Ativo 145 / 151 40% 2 09.10.2027 -
Julián Bazán Philadelphia Union Ativo 105 / 106 40% 1 07.10.2027 -
Dayann Methalie Aston Villa Ativo 132 / 141 40% 1 07.10.2027 -
Dango Ouattara Brentford Ativo 150 / 138 40% 4 30.05.2027 -
Luis Vázquez Birmingham Ativo 128 / 126 40% 9 28.05.2027 -
Tom Cannon Sheffield United Ativo 129 / 136 40% 2 28.05.2027 -
Evidence Makgopa Orlando Pirates Ativo 103 / 100 40% 5 27.05.2027 -
Wilson Isidor Sunderland Ativo 133 / 132 40% 3 27.05.2027 -
Joe Gelhardt Hull City Ativo 134 / 123 40% 3 26.05.2027 -
Bradley Fink Wycombe Wanderers Ativo 117 / 110 40% 1 26.05.2027 -
Aune Heggebø West Bromwich Albion Ativo 125 / 129 40% 3 24.05.2027 -
Will Lankshear Middlesbrough Ativo 125 / 117 40% 2 24.05.2027 -
Giacomo Raspadori Atalanta Ativo 155 / 139 40% 4 22.05.2027 -
Mathias Jørgensen Blackburn Rovers Ativo 118 / 119 40% 1 19.05.2027 -
Yousef Salech Cardiff City Ativo 129 / 137 40% 5 18.05.2027 Observar
Mandla Mahlangu Ajax Cape Town Ativo 116 / 119 40% 2 18.05.2027 -
Tommy Conway Middlesbrough Ativo 129 / 121 40% 3 17.05.2027 -
Róbert Boženík Newcastle United Ativo 135 / 120 40% 2 14.05.2027 -
Jayden Wareham Barnet Ativo 106 / 110 40% 3 14.05.2027 -
Assane Diao Lazio Ativo 140 / 156 40% 4 11.05.2027 -
Gonzalo Fulham Ativo 153 / 151 40% 4 08.05.2027 -
Rhian Brewster Oxford United Ativo 122 / 120 40% 1 08.05.2027 -
Nicolò Zaniolo Udinese Ativo 150 / 143 40% 2 04.05.2027 -
Lee Bonis Chesterfield Ativo 109 / 98 40% 2 03.05.2027 -
Jaze Kabia Grimsby Town Ativo 90 / 91 40% 1 02.05.2027 -
Dom Ballard Leyton Orient Ativo 126 / 113 40% 1 01.05.2027 -
Harry Leonard Peterborough United Ativo 103 / 118 40% 1 30.04.2027 -
Georginio Rutter Brighton Ativo 141 / 158 40% 9 29.04.2027 -
Nicolas Jackson Aston Villa Ativo 142 / 138 40% 3 26.04.2027 -
Mees Rijks Bristol Rovers Ativo 112 / 118 40% 1 26.04.2027 -
Christian Saydee Wigan Athletic Ativo 116 / 125 40% 1 24.04.2027 -
Bongani Mothiba SuperSport United Ativo 87 / 81 40% 2 23.04.2027 -
Etiosa Ighodaro Kaizer Chiefs Ativo 114 / 123 40% 3 22.04.2027 -
Richard Koné Queens Park Rangers Ativo 132 / 122 40% 2 19.04.2027 -
Ilyas Ansah Hull City Ativo 135 / 137 40% 3 15.04.2027 -
Andrea Pinamonti Lazio Ativo 132 / 133 40% 2 13.04.2027 -
Gabriel Martinelli Brighton Ativo 167 / 158 40% 5 11.04.2027 -
Sam Bell Bristol City Ativo 115 / 125 40% 1 10.04.2027 -
Zakaria Aboukhlal Torino Ativo 138 / 131 40% 1 25.03.2027 -
Iliman N'Diaye Everton Ativo 166 / 147 40% 7 20.03.2027 -
Tyrese Campbell Sheffield United Ativo 137 / 131 40% 2 18.03.2027 -
Dávid Strelec Middlesbrough Ativo 133 / 143 40% 1 17.03.2027 -
Thiago Brentford Ativo 141 / 156 40% 3 16.03.2027 -
Daouda Sidibé Aduana Stars Ativo 75 / 90 40% 1 12.03.2027 -
Robert Mizo Ashanti Gold Ativo 95 / 97 40% 1 05.03.2027 -
Justin Kluivert Bournemouth Ativo 155 / 161 40% 1 13.01.2027 -
Adrien Truffert Bournemouth Ativo 159 / 160 40% 1 07.01.2027 -
Enzo Le Fée Sunderland Ativo 141 / 131 40% 1 02.01.2027 -
Maxim Glushenkov Zenit Ativo 146 / 139 40% 1 02.01.2027 -
Christos Zafeiris Tigres Ativo 138 / 141 91% 1 01.01.2027 Aprovar
Marvin Keller Bayer Leverkusen Negociando 136 / 137 67% 1 01.01.2027 -
Milan van Ewijk Mansfield Town Ativo 125 / 123 40% 1 31.12.2026 -
Kevin Fulham Ativo 141 / 142 40% 1 29.12.2026 -
Tammy Abraham Aston Villa Ativo 138 / 144 40% 2 25.12.2026 -
Mohammed Kudus Tottenham Ativo 169 / 147 40% 1 24.12.2026 -
Wessam Abou Ali Columbus Crew Ativo 134 / 138 40% 2 22.12.2026 -
Elijah Adebayo Luton Town Ativo 116 / 121 40% 1 22.12.2026 -
Breel Embolo Atlanta United FC Ativo 143 / 131 40% 5 21.12.2026 -
Cameron Archer Southampton Ativo 119 / 126 40% 2 20.12.2026 -
Jarrad Branthwaite Everton Ativo 154 / 156 40% 1 19.12.2026 -
Patson Daka Leicester City Ativo 119 / 132 40% 1 17.12.2026 -
Carlos Vicente Birmingham Ativo 144 / 134 40% 1 17.12.2026 -
Matt O'Riley Brighton Ativo 155 / 144 40% 2 11.12.2026 -
Jack Rudoni Coventry City Ativo 143 / 132 40% 1 11.12.2026 -
Ryan Sessegnon Fulham Ativo 149 / 137 40% 2 09.12.2026 -
Mateo Retegui Tottenham Ativo 151 / 151 40% 2 07.12.2026 -
Yusuke Matsuo Esteghlal Ativo 112 / 143 40% 1 07.12.2026 -
Sandro Tonali Tottenham Ativo 176 / 167 40% 4 06.12.2026 -
Taty Castellanos West Ham United Ativo 146 / 147 40% 1 02.12.2026 -
Callum O'Hare Sheffield United Ativo 135 / 118 40% 1 28.11.2026 -
Xavi Simons Tottenham Ativo 156 / 146 40% 1 28.11.2026 -
Alonso Martínez New York City Ativo 127 / 107 40% 1 25.11.2026 -
Aaron Hickey Brentford Ativo 151 / 147 40% 1 24.11.2026 -
Leonardo Campana New England Revolution Ativo 124 / 131 40% 1 23.11.2026 -
Jacob Ramsey Newcastle United Ativo 141 / 138 40% 1 20.11.2026 -
Petar Stanić Ludogorets Ativo 121 / 142 40% 1 18.11.2026 -
Dejan Joveljić Seattle Sounders Ativo 143 / 135 40% 3 17.11.2026 -
Bénie Traoré New York City Ativo 127 / 114 40% 2 16.11.2026 -
Dejan Kulusevski Tottenham Ativo 174 / 156 40% 1 15.11.2026 -
Nathan Collins Brentford Ativo 156 / 142 40% 1 15.11.2026 -
Yankuba Minteh Brighton Ativo 153 / 150 40% 1 13.11.2026 -
Jean-Philippe Mateta Crystal Palace Ativo 150 / 141 40% 2 11.11.2026 -
Petar Musa Adana Demirspor Ativo 148 / 153 40% 2 10.11.2026 -
Noni Madueke Arsenal Ativo 159 / 150 40% 1 08.11.2026 -
Micky van de Ven Tottenham Ativo 168 / 167 40% 2 07.11.2026 -
Jan Paul van Hecke Tottenham Ativo 153 / 146 40% 1 07.11.2026 -
Tyler Adams Bournemouth Ativo 141 / 139 40% 1 03.11.2026 -
Jarrod Bowen West Ham United Ativo 150 / 154 40% 1 01.11.2026 -
Duncan McGuire Houston Dynamo Ativo 123 / 133 40% 2 31.10.2026 -
Romelu Castagne KV Oostende Ativo 138 / 133 40% 2 22.10.2026 -
Jesus Ferreira Seattle Sounders Ativo 118 / 117 40% 1 21.10.2026 -
Josh Sargent Toronto FC Ativo 130 / 118 40% 2 20.10.2026 -
Federico Chiesa Liverpool Ativo 149 / 162 40% 1 17.10.2026 -
Kerem Aktürkoğlu Fenerbahce Ativo 148 / 158 40% 1 15.10.2026 -
Sead Hakšabanović Malmo FF Ativo 104 / 100 40% 1 14.10.2026 -
Dominic Solanke Tottenham Ativo 137 / 135 40% 1 12.10.2026 -
Cody Gakpo Liverpool Ativo 167 / 152 40% 1 10.10.2026 -
Cheikh Sabaly Vancouver Whitecaps Ativo 139 / 131 40% 2 07.10.2026 -
Barış Alper Yılmaz Galatasaray Ativo 135 / 158 40% 1 07.10.2026 -
Milan Iloski Philadelphia Union Ativo 115 / 124 40% 1 06.10.2026 -
Sam Surridge Nashville SC Ativo 143 / 121 40% 1 05.10.2026 -
Morgan Guilavogui Real Salt Lake Ativo 126 / 128 40% 2 01.10.2026 -
Victor Olatunji Real Salt Lake Ativo 105 / 101 40% 2 01.10.2026 -
Rafael Navarro St. Louis CITY SC Ativo 123 / 132 40% 3 30.09.2026 -
Indiana Vassilev Philadelphia Union Ativo 111 / 105 40% 3 25.09.2026 -
Tai Baribo DC United Ativo 114 / 141 40% 1 22.09.2026 -
Martín Ojeda Orlando City Ativo 144 / 118 40% 1 21.09.2026 -
Prince Owusu CF Montreal Ativo 104 / 127 40% 1 21.09.2026 -
Themba Ngcobo SuperSport United Ativo 104 / 121 40% 1 19.09.2026 -
Kévin Denkey FC Cincinnati Ativo 131 / 116 40% 1 15.09.2026 -
Jeong Sang-Bin St. Louis CITY SC Ativo 108 / 121 40% 1 12.09.2026 -
Mauro Arambarri River Plate Ativo 156 / 158 40% 1 20.08.2026 -
Hector Ramirez Newcastle United Ativo 150 / 165 40% 1 20.08.2026 -